Time;durP1;ratioP1;P1;durP2;ratioP2;P2;SDS_P1;SDS_P2;PMS_P1;PMS_P2;Temp;Humidity;BMP_temperature;BMP_pressure;BME280_temperature;BME280_humidity;BME280_pressure;Samples;Min_cycle;Max_cycle;Signal;HPM_P1;HPM_P2
2022/10/26 00:01:11;;;;;;;8.97;3.47;;;18.30;76.70;;;;;;4934453;29;20296;-92
2022/10/26 00:03:39;;;;;;;11.83;4.60;;;18.30;76.70;;;;;;4935666;28;20251;-92
2022/10/26 00:06:08;;;;;;;18.97;5.73;;;18.30;77.50;;;;;;4938059;28;20309;-92
2022/10/26 00:08:37;;;;;;;9.30;4.47;;;18.30;76.60;;;;;;4941870;28;20213;-92
2022/10/26 00:11:08;;;;;;;12.53;4.53;;;18.30;76.50;;;;;;4950890;28;20209;-93
2022/10/26 00:13:36;;;;;;;9.53;4.17;;;18.30;76.60;;;;;;4942865;28;20268;-92
2022/10/26 00:16:09;;;;;;;11.03;4.00;;;18.30;76.50;;;;;;4949315;28;20231;-91
2022/10/26 00:18:46;;;;;;;7.20;3.27;;;18.30;76.70;;;;;;4957597;28;20223;-92
2022/10/26 00:21:14;;;;;;;9.00;3.43;;;18.20;76.70;;;;;;4943527;29;20207;-92
2022/10/26 00:23:41;;;;;;;8.37;3.37;;;18.20;76.20;;;;;;5006735;28;20196;-91
2022/10/26 00:26:12;;;;;;;5.40;2.97;;;18.20;76.20;;;;;;4936152;29;20246;-92
2022/10/26 00:28:40;;;;;;;6.63;3.33;;;18.20;76.30;;;;;;4938266;29;20219;-92
2022/10/26 00:31:12;;;;;;;9.00;3.83;;;18.20;76.10;;;;;;4936613;28;20207;-91
2022/10/26 00:33:39;;;;;;;7.67;3.47;;;18.20;76.20;;;;;;4937238;29;20235;-92
2022/10/26 00:36:09;;;;;;;8.07;3.17;;;18.20;76.20;;;;;;4935514;29;20374;-92
2022/10/26 00:38:36;;;;;;;9.07;3.87;;;18.20;76.20;;;;;;4936333;28;20239;-93
2022/10/26 00:41:12;;;;;;;11.53;4.33;;;18.20;76.10;;;;;;4936798;28;20291;-93
2022/10/26 00:43:41;;;;;;;10.10;4.03;;;18.10;76.30;;;;;;4977642;28;20200;-93
2022/10/26 00:46:14;;;;;;;15.90;3.93;;;18.10;75.90;;;;;;4936127;29;20641;-93
2022/10/26 00:48:44;;;;;;;9.90;3.80;;;18.10;76.10;;;;;;4934606;28;20312;-93
2022/10/26 00:51:20;;;;;;;11.10;4.03;;;18.10;76.00;;;;;;4933270;29;20211;-90
2022/10/26 00:53:49;;;;;;;7.30;3.40;;;18.00;76.10;;;;;;4933101;28;20196;-93
2022/10/26 00:56:20;;;;;;;13.53;3.93;;;18.00;76.00;;;;;;4935509;28;20288;-94
2022/10/26 00:58:51;;;;;;;9.43;4.03;;;18.00;76.00;;;;;;4935499;29;20222;-93
2022/10/26 01:01:18;;;;;;;12.83;4.27;;;17.90;75.90;;;;;;4934135;28;20276;-94
2022/10/26 01:03:46;;;;;;;9.30;3.97;;;17.90;75.80;;;;;;4934873;28;20206;-95
2022/10/26 01:06:15;;;;;;;10.87;4.50;;;17.90;75.90;;;;;;4935857;29;20224;-94
2022/10/26 01:08:43;;;;;;;10.07;3.57;;;17.90;76.00;;;;;;4935497;29;20307;-94
2022/10/26 01:11:13;;;;;;;10.50;4.07;;;17.90;76.20;;;;;;4940858;29;20208;-93
2022/10/26 01:13:44;;;;;;;8.87;4.33;;;17.80;76.00;;;;;;4951418;28;20273;-93
2022/10/26 01:16:31;;;;;;;7.07;3.53;;;17.80;76.10;;;;;;4934911;28;20261;-94
2022/10/26 01:19:28;;;;;;;11.83;4.17;;;17.80;76.40;;;;;;4928713;29;20226;-93
2022/10/26 01:22:08;;;;;;;8.60;3.63;;;17.80;76.40;;;;;;4928837;29;20209;-93
2022/10/26 01:25:03;;;;;;;10.07;3.63;;;17.80;76.30;;;;;;4933686;28;20304;-92
2022/10/26 01:27:35;;;;;;;10.10;3.47;;;17.70;76.70;;;;;;4933240;28;20236;-93
2022/10/26 01:30:32;;;;;;;9.53;3.53;;;17.70;76.50;;;;;;4932621;29;20312;-91
2022/10/26 01:33:24;;;;;;;9.57;3.80;;;17.70;76.90;;;;;;4933647;29;20212;-92
2022/10/26 01:36:01;;;;;;;9.77;3.50;;;17.70;76.90;;;;;;4933438;28;20287;-92
2022/10/26 01:38:40;;;;;;;7.13;3.17;;;17.60;76.90;;;;;;4933748;29;20339;-92
2022/10/26 01:41:15;;;;;;;9.57;4.03;;;17.60;77.20;;;;;;4932311;28;20611;-93
2022/10/26 01:43:47;;;;;;;8.97;3.30;;;17.60;77.20;;;;;;4935438;29;20210;-95
2022/10/26 01:46:34;;;;;;;9.87;3.20;;;17.60;77.40;;;;;;4933187;29;20687;-93
2022/10/26 01:49:07;;;;;;;7.70;3.27;;;17.60;77.70;;;;;;4945579;28;20249;-92
2022/10/26 01:51:35;;;;;;;6.27;3.10;;;17.50;77.80;;;;;;4936463;29;20198;-93
2022/10/26 01:54:04;;;;;;;8.53;3.20;;;17.60;78.00;;;;;;4938426;28;20690;-93
2022/10/26 01:56:36;;;;;;;12.10;4.10;;;17.50;78.00;;;;;;4936416;29;20997;-93
2022/10/26 01:59:38;;;;;;;10.63;3.83;;;17.60;78.20;;;;;;4939292;28;20213;-94
2022/10/26 02:02:30;;;;;;;9.20;3.47;;;17.60;78.80;;;;;;4999945;28;20218;-93
2022/10/26 02:05:24;;;;;;;8.57;3.43;;;17.60;78.80;;;;;;4927107;28;20266;-92
2022/10/26 02:08:04;;;;;;;10.37;3.67;;;17.50;78.70;;;;;;4952515;28;20199;-94
2022/10/26 02:10:44;;;;;;;10.57;3.37;;;17.50;78.70;;;;;;4952346;28;20302;-94
2022/10/26 02:13:18;;;;;;;9.97;3.93;;;17.60;78.90;;;;;;4939628;28;20218;-93
2022/10/26 02:15:53;;;;;;;9.10;3.67;;;17.60;78.80;;;;;;4923094;29;20241;-93
2022/10/26 02:18:29;;;;;;;12.27;4.03;;;17.50;78.80;;;;;;4936521;28;20257;-93
2022/10/26 02:21:03;;;;;;;11.43;3.83;;;17.60;79.10;;;;;;4919167;29;20804;-92
2022/10/26 02:23:34;;;;;;;10.63;4.17;;;17.60;78.90;;;;;;4930810;28;20209;-94
2022/10/26 02:26:07;;;;;;;10.27;3.73;;;17.60;78.80;;;;;;4933741;28;20852;-92
2022/10/26 02:28:37;;;;;;;14.17;4.63;;;17.60;80.10;;;;;;4935785;29;20234;-92
2022/10/26 02:31:10;;;;;;;11.40;3.70;;;17.60;79.30;;;;;;4936852;29;20215;-92
2022/10/26 02:33:46;;;;;;;11.93;4.43;;;17.60;79.40;;;;;;4938227;28;20202;-93
2022/10/26 02:36:18;;;;;;;9.33;4.00;;;17.60;79.50;;;;;;4922163;28;20227;-94
2022/10/26 02:38:47;;;;;;;10.33;3.37;;;17.60;79.60;;;;;;4925901;29;20215;-94
2022/10/26 02:41:18;;;;;;;7.00;3.00;;;17.60;79.50;;;;;;4939383;29;20236;-94
2022/10/26 02:43:52;;;;;;;9.47;3.60;;;17.60;79.90;;;;;;4939233;28;21179;-93
2022/10/26 02:46:25;;;;;;;10.37;3.40;;;17.60;79.90;;;;;;4940316;28;20213;-95
2022/10/26 02:48:57;;;;;;;13.00;4.73;;;17.60;79.80;;;;;;4936237;28;20279;-96
2022/10/26 02:51:34;;;;;;;8.57;3.03;;;17.60;79.80;;;;;;5006204;28;20262;-94
2022/10/26 02:54:20;;;;;;;7.63;3.37;;;17.60;80.10;;;;;;4938557;29;20218;-93
2022/10/26 02:56:52;;;;;;;11.97;4.00;;;17.60;80.20;;;;;;4927116;28;20238;-94
2022/10/26 02:59:28;;;;;;;16.27;5.13;;;17.70;80.10;;;;;;4921293;29;20223;-93
2022/10/26 03:01:56;;;;;;;17.77;5.63;;;17.70;80.30;;;;;;4943205;28;20234;-93
2022/10/26 03:04:35;;;;;;;10.63;4.03;;;17.70;80.00;;;;;;4947886;29;20200;-95
2022/10/26 03:07:02;;;;;;;12.70;4.47;;;17.70;80.70;;;;;;4940312;29;20239;-93
2022/10/26 03:09:33;;;;;;;7.20;3.20;;;17.60;79.80;;;;;;4938836;28;20313;-93
2022/10/26 03:12:05;;;;;;;8.93;3.30;;;17.70;80.30;;;;;;4938974;29;20208;-92
2022/10/26 03:14:34;;;;;;;7.47;3.00;;;17.70;80.20;;;;;;4938761;29;20213;-92
2022/10/26 03:17:02;;;;;;;11.93;4.17;;;17.70;80.00;;;;;;4938250;28;20271;-94
2022/10/26 03:19:33;;;;;;;11.27;3.80;;;17.70;79.90;;;;;;4936199;28;20257;-95
2022/10/26 03:22:07;;;;;;;10.87;4.07;;;17.70;80.30;;;;;;4937607;29;20246;-92
2022/10/26 03:24:37;;;;;;;7.10;2.90;;;17.70;80.10;;;;;;4931921;28;20218;-94
2022/10/26 03:27:05;;;;;;;8.77;3.80;;;17.70;79.90;;;;;;4934386;28;20215;-92
2022/10/26 03:29:32;;;;;;;8.00;2.93;;;17.70;80.00;;;;;;4935930;29;20202;-94
2022/10/26 03:31:59;;;;;;;15.70;4.60;;;17.70;79.90;;;;;;4949268;28;20214;-92
2022/10/26 03:34:28;;;;;;;9.73;3.83;;;17.70;80.30;;;;;;4936799;29;20690;-92
2022/10/26 03:36:57;;;;;;;10.80;3.73;;;17.70;80.40;;;;;;4935889;29;20250;-95
2022/10/26 03:39:24;;;;;;;10.13;3.57;;;17.70;80.50;;;;;;4936935;29;20226;-93
2022/10/26 03:41:54;;;;;;;8.03;3.10;;;17.70;80.40;;;;;;4936360;28;20302;-92
2022/10/26 03:44:22;;;;;;;12.47;4.67;;;17.70;80.50;;;;;;4920419;28;20209;-92
2022/10/26 03:46:49;;;;;;;7.83;3.33;;;17.70;80.80;;;;;;4936980;28;20297;-93
2022/10/26 03:49:18;;;;;;;16.53;4.83;;;17.70;80.60;;;;;;4935730;28;20212;-88
2022/10/26 03:51:47;;;;;;;8.73;3.50;;;17.70;80.80;;;;;;4935491;29;20225;-93
2022/10/26 03:54:15;;;;;;;10.50;2.93;;;17.70;80.80;;;;;;4935783;29;20860;-93
2022/10/26 03:56:43;;;;;;;9.23;3.13;;;17.70;80.90;;;;;;4933759;28;20268;-94
2022/10/26 03:59:11;;;;;;;10.30;3.47;;;17.70;80.80;;;;;;4945953;28;20242;-94
2022/10/26 04:01:39;;;;;;;8.73;3.43;;;17.70;80.90;;;;;;4942988;28;20195;-94
2022/10/26 04:04:10;;;;;;;8.20;3.03;;;17.70;80.90;;;;;;4936589;28;20229;-92
2022/10/26 04:06:37;;;;;;;6.80;2.97;;;17.80;81.10;;;;;;4937069;29;20229;-93
2022/10/26 04:09:07;;;;;;;13.77;4.40;;;17.80;81.10;;;;;;4999224;28;20207;-93
2022/10/26 04:11:36;;;;;;;7.97;3.13;;;17.80;81.40;;;;;;4937519;28;20211;-92
2022/10/26 04:14:04;;;;;;;10.73;3.00;;;17.80;81.80;;;;;;4934415;29;20248;-94
2022/10/26 04:16:31;;;;;;;10.17;3.23;;;17.80;81.90;;;;;;4931142;28;20242;-95
2022/10/26 04:19:04;;;;;;;13.73;4.43;;;17.80;81.80;;;;;;4927387;28;20313;-95
2022/10/26 04:21:34;;;;;;;8.80;3.07;;;17.80;82.40;;;;;;4932385;28;20327;-94
2022/10/26 04:24:05;;;;;;;10.07;3.00;;;17.90;82.00;;;;;;4934164;29;20329;-95
2022/10/26 04:26:36;;;;;;;9.23;3.30;;;17.90;82.20;;;;;;4933881;29;20320;-95
2022/10/26 04:29:05;;;;;;;11.77;3.07;;;17.90;82.50;;;;;;4929987;28;20268;-94
2022/10/26 04:31:32;;;;;;;9.40;3.23;;;17.90;82.20;;;;;;4932873;28;20238;-94
2022/10/26 04:34:01;;;;;;;7.87;3.00;;;18.00;82.00;;;;;;4931748;28;20302;-95
2022/10/26 04:36:28;;;;;;;9.33;3.40;;;18.00;82.30;;;;;;4931774;28;20285;-96
2022/10/26 04:38:55;;;;;;;9.23;3.27;;;18.00;82.00;;;;;;4932403;28;20234;-96
2022/10/26 04:41:24;;;;;;;14.77;4.87;;;18.00;82.00;;;;;;4930458;29;20964;-93
2022/10/26 04:43:54;;;;;;;11.83;3.73;;;18.10;82.20;;;;;;4930552;29;20214;-95
2022/10/26 04:46:21;;;;;;;8.97;3.73;;;18.10;82.10;;;;;;4931392;28;20631;-94
2022/10/26 04:48:48;;;;;;;13.37;4.10;;;18.10;82.60;;;;;;4919671;28;20258;-93
2022/10/26 04:51:17;;;;;;;12.33;4.17;;;18.20;81.80;;;;;;4920622;29;20217;-94
2022/10/26 04:53:44;;;;;;;13.17;3.83;;;18.20;82.00;;;;;;4940458;29;20231;-93
2022/10/26 04:56:11;;;;;;;11.63;3.77;;;18.20;81.80;;;;;;4925328;29;20284;-95
2022/10/26 04:58:40;;;;;;;11.53;3.70;;;18.20;81.70;;;;;;4919009;28;20567;-95
2022/10/26 05:01:09;;;;;;;11.23;4.07;;;18.20;81.70;;;;;;4930416;28;20306;-95
2022/10/26 05:03:36;;;;;;;5.37;2.33;;;18.30;81.70;;;;;;4933566;28;20210;-95
2022/10/26 05:06:05;;;;;;;9.20;3.57;;;18.20;81.30;;;;;;4935022;29;20717;-96
2022/10/26 05:08:33;;;;;;;6.70;2.80;;;18.30;81.40;;;;;;4929107;28;20242;-93
2022/10/26 05:11:00;;;;;;;10.23;3.17;;;18.30;81.20;;;;;;4930960;29;20206;-92
2022/10/26 05:13:28;;;;;;;16.20;5.50;;;18.30;81.30;;;;;;4920456;29;21680;-94
2022/10/26 05:15:55;;;;;;;6.87;2.90;;;18.30;81.30;;;;;;4921057;29;20244;-95
2022/10/26 05:18:25;;;;;;;10.90;3.60;;;18.30;81.10;;;;;;4918414;28;20260;-93
2022/10/26 05:20:55;;;;;;;9.87;3.43;;;18.30;81.30;;;;;;4932632;28;20211;-95
2022/10/26 05:23:23;;;;;;;10.27;3.93;;;18.30;81.30;;;;;;4929490;28;20673;-95
2022/10/26 05:25:50;;;;;;;13.27;5.13;;;18.30;81.10;;;;;;4931866;29;20215;-90
2022/10/26 05:28:18;;;;;;;12.67;4.33;;;18.30;81.00;;;;;;4995943;28;20211;-90
2022/10/26 05:30:46;;;;;;;7.53;2.97;;;18.30;81.10;;;;;;4925861;28;20208;-93
2022/10/26 05:33:14;;;;;;;10.23;3.83;;;18.30;81.00;;;;;;4922111;28;20210;-94
2022/10/26 05:35:45;;;;;;;6.60;2.90;;;18.30;81.00;;;;;;4929827;29;20203;-94
2022/10/26 05:38:14;;;;;;;15.50;5.23;;;18.30;81.00;;;;;;4918495;28;20269;-94
2022/10/26 05:40:47;;;;;;;9.13;3.23;;;18.30;80.90;;;;;;4930143;28;20210;-94
2022/10/26 05:43:15;;;;;;;10.33;3.20;;;18.40;81.40;;;;;;4928907;28;20214;-94
2022/10/26 05:45:42;;;;;;;17.63;5.07;;;18.30;80.90;;;;;;4930197;28;20807;-94
2022/10/26 05:48:12;;;;;;;11.07;3.27;;;18.30;81.00;;;;;;4929795;28;20245;-93
2022/10/26 05:50:39;;;;;;;12.53;4.47;;;18.30;81.10;;;;;;4929727;28;20259;-96
2022/10/26 05:53:22;;;;;;;4.20;2.23;;;18.30;81.00;;;;;;4934033;28;20211;-90
2022/10/26 05:55:51;;;;;;;15.47;4.00;;;18.30;81.40;;;;;;4934478;28;20276;-94
2022/10/26 05:58:18;;;;;;;13.47;4.50;;;18.30;81.10;;;;;;4929083;28;20313;-93
2022/10/26 06:00:56;;;;;;;6.63;2.37;;;18.30;81.20;;;;;;4931059;28;20294;-95
2022/10/26 06:03:39;;;;;;;8.07;3.10;;;18.30;81.50;;;;;;4935128;28;20248;-94
2022/10/26 06:06:11;;;;;;;11.13;3.80;;;18.30;81.70;;;;;;4934357;29;20251;-92
2022/10/26 06:08:42;;;;;;;9.30;3.63;;;18.20;81.30;;;;;;4939640;28;20627;-95
2022/10/26 06:11:11;;;;;;;12.07;3.67;;;18.20;81.60;;;;;;4934564;28;20304;-93
2022/10/26 06:13:40;;;;;;;13.03;4.47;;;18.20;81.70;;;;;;4933971;28;20202;-95
2022/10/26 06:16:27;;;;;;;11.20;3.83;;;18.20;81.90;;;;;;4924595;28;20214;-95
2022/10/26 06:19:04;;;;;;;11.90;4.17;;;18.20;82.30;;;;;;4930312;28;20285;-95
2022/10/26 06:21:51;;;;;;;11.33;4.00;;;18.20;82.40;;;;;;4923723;28;20216;-93
2022/10/26 06:24:27;;;;;;;13.80;3.73;;;18.10;82.50;;;;;;4932078;28;20317;-92
2022/10/26 06:27:05;;;;;;;7.43;3.07;;;18.10;82.40;;;;;;4930110;28;20275;-93
2022/10/26 06:29:44;;;;;;;9.60;3.50;;;18.20;82.80;;;;;;4931696;28;20220;-93
2022/10/26 06:32:14;;;;;;;9.30;3.67;;;18.10;83.10;;;;;;4930168;28;20222;-95
2022/10/26 06:34:46;;;;;;;12.53;4.00;;;18.10;83.00;;;;;;4932032;28;20659;-92
2022/10/26 06:37:16;;;;;;;12.87;4.10;;;18.10;83.10;;;;;;4933378;28;20257;-94
2022/10/26 06:39:46;;;;;;;17.93;5.33;;;18.10;83.10;;;;;;4936960;28;20281;-91
2022/10/26 06:42:14;;;;;;;11.77;4.07;;;18.10;83.50;;;;;;4933535;29;20250;-91
2022/10/26 06:44:42;;;;;;;11.33;3.70;;;18.10;83.60;;;;;;4931758;29;20249;-91
2022/10/26 06:47:18;;;;;;;13.40;4.33;;;18.10;83.90;;;;;;4932412;29;20841;-91
2022/10/26 06:50:05;;;;;;;16.10;4.37;;;18.00;84.30;;;;;;4930391;28;20209;-91
2022/10/26 06:52:40;;;;;;;14.33;5.13;;;18.10;85.00;;;;;;4929387;28;20205;-90
2022/10/26 06:55:15;;;;;;;14.03;5.10;;;18.00;84.40;;;;;;4930743;28;20661;-93
2022/10/26 06:57:45;;;;;;;14.67;5.10;;;18.00;84.70;;;;;;4933565;28;20233;-91
2022/10/26 07:00:19;;;;;;;13.00;4.20;;;18.10;84.60;;;;;;4934595;28;20219;-91
2022/10/26 07:02:48;;;;;;;11.40;4.03;;;18.00;85.40;;;;;;4999446;28;20216;-90
2022/10/26 07:05:15;;;;;;;12.13;4.03;;;18.10;85.00;;;;;;4932830;29;20207;-89
2022/10/26 07:07:44;;;;;;;19.07;5.63;;;18.00;84.90;;;;;;4929600;29;20310;-89
2022/10/26 07:10:13;;;;;;;11.93;3.60;;;18.10;85.60;;;;;;4927378;28;20694;-89
2022/10/26 07:12:41;;;;;;;11.60;4.63;;;18.10;85.80;;;;;;4932389;28;20306;-90
2022/10/26 07:15:08;;;;;;;10.63;4.60;;;18.10;85.80;;;;;;4930903;28;20200;-91
2022/10/26 07:17:43;;;;;;;13.10;4.27;;;18.10;85.90;;;;;;4928385;29;20296;-91
2022/10/26 07:20:11;;;;;;;9.27;3.53;;;18.10;86.70;;;;;;4932081;28;20241;-91
2022/10/26 07:22:38;;;;;;;17.07;5.93;;;18.10;86.40;;;;;;4934732;29;20268;-90
2022/10/26 07:25:07;;;;;;;13.40;4.80;;;18.20;86.80;;;;;;4926809;28;20223;-90
2022/10/26 07:27:36;;;;;;;13.87;4.73;;;18.20;87.40;;;;;;4915335;29;20645;-93
2022/10/26 07:30:07;;;;;;;14.23;4.90;;;18.20;87.70;;;;;;4930138;28;20671;-91
2022/10/26 07:32:34;;;;;;;10.77;4.17;;;18.20;88.00;;;;;;4912397;29;20636;-89
2022/10/26 07:35:01;;;;;;;13.07;4.37;;;18.20;87.60;;;;;;4911979;28;20294;-90
2022/10/26 07:37:29;;;;;;;12.63;4.67;;;18.20;88.00;;;;;;4911848;28;20426;-90
2022/10/26 07:39:56;;;;;;;14.53;5.20;;;18.30;88.20;;;;;;4929167;29;20265;-90
2022/10/26 07:42:23;;;;;;;9.37;3.57;;;18.30;88.60;;;;;;4930168;29;20227;-90
2022/10/26 07:44:51;;;;;;;13.63;5.37;;;18.30;88.70;;;;;;4928377;28;20317;-89
2022/10/26 07:47:18;;;;;;;8.50;3.87;;;18.40;89.00;;;;;;4929109;29;20344;-90
2022/10/26 07:49:45;;;;;;;10.73;4.37;;;18.40;88.80;;;;;;4932924;29;20642;-92
2022/10/26 07:52:12;;;;;;;9.03;3.70;;;18.50;89.20;;;;;;4938376;29;20770;-91
2022/10/26 07:54:39;;;;;;;10.07;4.17;;;18.50;89.10;;;;;;4929805;28;20207;-89
2022/10/26 07:57:06;;;;;;;10.07;3.87;;;18.50;89.20;;;;;;4930353;29;20319;-89
2022/10/26 07:59:33;;;;;;;14.00;4.27;;;18.60;89.60;;;;;;4930275;28;20743;-90
2022/10/26 08:02:04;;;;;;;9.77;4.20;;;18.60;89.40;;;;;;4930762;29;20214;-90
2022/10/26 08:04:31;;;;;;;9.73;4.23;;;18.70;90.00;;;;;;4927914;28;20219;-90
2022/10/26 08:06:58;;;;;;;10.87;3.70;;;18.70;89.60;;;;;;4930709;29;20209;-91
2022/10/26 08:09:25;;;;;;;13.90;5.43;;;18.70;89.50;;;;;;4930032;28;20281;-89
2022/10/26 08:11:52;;;;;;;12.93;3.70;;;18.80;89.60;;;;;;4933945;28;20586;-90
2022/10/26 08:14:19;;;;;;;12.50;4.00;;;18.90;89.60;;;;;;4930663;28;20242;-90
2022/10/26 08:16:46;;;;;;;11.93;3.80;;;18.90;89.60;;;;;;4930266;29;20318;-88
2022/10/26 08:19:15;;;;;;;13.90;4.17;;;18.90;89.70;;;;;;4930035;28;20362;-91
2022/10/26 08:21:43;;;;;;;10.60;4.20;;;19.00;90.00;;;;;;4930639;28;20243;-91
2022/10/26 08:24:10;;;;;;;9.77;3.87;;;19.00;90.00;;;;;;4915455;29;20627;-89
2022/10/26 08:26:37;;;;;;;11.87;4.10;;;19.00;89.80;;;;;;4917518;29;20236;-89
2022/10/26 08:29:09;;;;;;;14.27;4.53;;;19.10;89.80;;;;;;4930150;28;20292;-92
2022/10/26 08:31:36;;;;;;;9.40;3.77;;;19.10;89.70;;;;;;4923866;29;20215;-90
2022/10/26 08:34:06;;;;;;;19.13;6.60;;;19.20;89.60;;;;;;4911880;28;20205;-91
2022/10/26 08:36:34;;;;;;;12.77;4.20;;;19.20;89.80;;;;;;4925797;29;20212;-93
2022/10/26 08:39:03;;;;;;;15.70;5.10;;;19.30;89.70;;;;;;4928140;28;20220;-92
2022/10/26 08:41:46;;;;;;;8.53;3.73;;;19.40;89.30;;;;;;4929641;28;20235;-93
2022/10/26 08:44:48;;;;;;;12.73;4.63;;;19.40;89.90;;;;;;4928963;28;20260;-92
2022/10/26 08:47:19;;;;;;;10.27;3.63;;;19.40;89.90;;;;;;4924937;29;20232;-92
2022/10/26 08:49:54;;;;;;;7.47;3.20;;;19.50;89.50;;;;;;4932817;28;20265;-94
2022/10/26 08:52:30;;;;;;;26.93;7.57;;;19.50;89.20;;;;;;4932172;29;20204;-93
2022/10/26 08:55:00;;;;;;;18.93;5.70;;;19.60;89.50;;;;;;4931529;29;20250;-93
2022/10/26 08:57:32;;;;;;;13.80;4.40;;;19.60;89.00;;;;;;4928004;28;20224;-91
2022/10/26 09:00:14;;;;;;;7.67;2.87;;;19.70;89.10;;;;;;4915252;29;20236;-94
2022/10/26 09:02:43;;;;;;;12.20;4.13;;;19.80;89.20;;;;;;4927557;28;20246;-92
2022/10/26 09:05:16;;;;;;;10.67;3.57;;;19.80;88.90;;;;;;4927406;29;20683;-93
2022/10/26 09:07:56;;;;;;;10.70;3.70;;;19.90;88.80;;;;;;4932287;28;20210;-95
2022/10/26 09:10:51;;;;;;;14.33;4.70;;;20.00;88.80;;;;;;4930722;28;20200;-93
2022/10/26 09:13:26;;;;;;;8.63;3.83;;;20.10;88.10;;;;;;4930167;29;20236;-91
2022/10/26 09:16:02;;;;;;;11.97;3.90;;;20.30;88.10;;;;;;4930603;28;20207;-92
2022/10/26 09:18:42;;;;;;;9.17;4.33;;;20.40;86.90;;;;;;4916681;28;20258;-90
2022/10/26 09:21:25;;;;;;;7.60;3.13;;;20.50;87.60;;;;;;4929591;28;20326;-92
2022/10/26 09:24:15;;;;;;;10.60;4.03;;;20.70;87.10;;;;;;4920904;29;20261;-91
2022/10/26 09:26:53;;;;;;;9.33;3.40;;;20.80;85.80;;;;;;4928387;29;20271;-91
2022/10/26 09:29:24;;;;;;;11.27;4.03;;;21.00;86.30;;;;;;4928134;29;20218;-92
2022/10/26 09:31:54;;;;;;;8.73;3.57;;;21.20;86.50;;;;;;4929214;29;20288;-91
2022/10/26 09:34:32;;;;;;;10.80;3.57;;;21.30;85.00;;;;;;4922308;29;20209;-91
2022/10/26 09:37:00;;;;;;;15.67;4.77;;;21.50;83.00;;;;;;4930246;28;20243;-93
2022/10/26 09:39:46;;;;;;;8.83;3.20;;;21.70;83.70;;;;;;4929864;29;20275;-91
2022/10/26 09:42:18;;;;;;;9.73;3.50;;;21.90;81.70;;;;;;4932679;29;20190;-92
2022/10/26 09:44:54;;;;;;;7.70;2.83;;;22.00;81.40;;;;;;4932709;28;20214;-92
2022/10/26 09:47:31;;;;;;;9.60;3.53;;;22.20;79.60;;;;;;4930738;29;20219;-93
2022/10/26 09:50:06;;;;;;;9.27;3.33;;;22.40;79.00;;;;;;4928321;29;20297;-91
2022/10/26 09:52:34;;;;;;;9.20;3.93;;;22.60;78.70;;;;;;4934059;29;20223;-94
2022/10/26 09:55:03;;;;;;;8.33;3.43;;;22.70;77.60;;;;;;4933092;28;20211;-93
2022/10/26 09:57:31;;;;;;;8.23;3.47;;;22.90;77.00;;;;;;4929244;29;20219;-91
2022/10/26 09:59:59;;;;;;;9.17;3.37;;;23.00;77.30;;;;;;4928022;29;20207;-91
2022/10/26 10:02:37;;;;;;;5.50;2.67;;;23.20;76.30;;;;;;4930937;28;20285;-92
2022/10/26 10:05:25;;;;;;;10.27;3.07;;;23.30;74.00;;;;;;4959845;28;20269;-94
2022/10/26 10:08:09;;;;;;;8.43;3.47;;;23.40;73.00;;;;;;4928125;28;20706;-93
2022/10/26 10:10:39;;;;;;;8.40;3.20;;;23.50;74.00;;;;;;4932094;28;20207;-93
2022/10/26 10:13:20;;;;;;;7.53;3.33;;;23.60;73.50;;;;;;4937936;28;20208;-92
2022/10/26 10:16:02;;;;;;;6.67;2.37;;;23.70;72.70;;;;;;4951394;29;20239;-93
2022/10/26 10:18:35;;;;;;;8.03;3.10;;;23.80;72.30;;;;;;4951003;28;20239;-92
2022/10/26 10:21:10;;;;;;;7.33;2.47;;;23.90;72.60;;;;;;4953171;28;20239;-91
2022/10/26 10:23:48;;;;;;;5.10;2.40;;;23.90;71.70;;;;;;4947923;29;20245;-95
2022/10/26 10:26:16;;;;;;;4.57;2.10;;;24.00;71.80;;;;;;4950367;28;20204;-93
2022/10/26 10:28:55;;;;;;;8.87;3.60;;;24.10;71.20;;;;;;4938315;29;20197;-88
2022/10/26 10:31:27;;;;;;;7.80;3.43;;;24.10;71.00;;;;;;4932939;28;20274;-92
2022/10/26 10:33:54;;;;;;;12.23;4.53;;;24.20;71.20;;;;;;4927463;29;20209;-88
2022/10/26 10:36:23;;;;;;;8.30;3.27;;;24.20;71.80;;;;;;4930582;28;20216;-91
2022/10/26 10:38:53;;;;;;;11.87;4.60;;;24.30;71.30;;;;;;4930353;28;20311;-91
2022/10/26 10:41:25;;;;;;;7.23;3.10;;;24.50;70.00;;;;;;4930689;29;20207;-87
2022/10/26 10:43:55;;;;;;;8.00;3.00;;;24.60;69.60;;;;;;4930098;28;20212;-89
2022/10/26 10:46:26;;;;;;;7.13;3.30;;;24.70;70.40;;;;;;4931956;28;20192;-89
2022/10/26 10:49:02;;;;;;;7.20;2.87;;;24.80;68.90;;;;;;4934217;28;20211;-91
2022/10/26 10:51:33;;;;;;;10.90;3.80;;;24.80;69.30;;;;;;4931360;29;20573;-91
2022/10/26 10:54:00;;;;;;;9.30;3.23;;;24.90;69.40;;;;;;4929793;28;20319;-89
2022/10/26 10:56:38;;;;;;;9.63;2.73;;;25.00;69.40;;;;;;4929742;28;20332;-90
2022/10/26 10:59:19;;;;;;;6.60;3.00;;;25.10;68.40;;;;;;4930425;28;20319;-88
2022/10/26 11:01:52;;;;;;;9.47;3.27;;;25.20;67.40;;;;;;4928052;29;20290;-89
2022/10/26 11:04:50;;;;;;;12.57;4.40;;;25.30;67.30;;;;;;4922321;28;20200;-90
2022/10/26 11:07:20;;;;;;;8.63;3.57;;;25.40;66.10;;;;;;4925172;28;20567;-92
2022/10/26 11:09:50;;;;;;;10.27;3.13;;;25.40;67.10;;;;;;4929964;28;20697;-90
2022/10/26 11:12:28;;;;;;;7.83;2.90;;;25.50;66.80;;;;;;4927879;29;20204;-91
2022/10/26 11:14:59;;;;;;;13.90;5.27;;;25.50;65.80;;;;;;4925878;28;20291;-89
2022/10/26 11:17:30;;;;;;;10.93;3.90;;;25.60;66.80;;;;;;4930733;28;20314;-92
2022/10/26 11:20:02;;;;;;;9.03;3.47;;;25.70;66.80;;;;;;4920908;28;20302;-92
2022/10/26 11:22:37;;;;;;;9.43;3.43;;;25.80;66.10;;;;;;4930108;28;20219;-90
2022/10/26 11:25:07;;;;;;;13.00;3.47;;;25.90;66.40;;;;;;4929221;28;20227;-91
2022/10/26 11:27:45;;;;;;;8.47;3.13;;;25.90;65.30;;;;;;4929891;28;20292;-92
2022/10/26 11:30:18;;;;;;;12.17;4.30;;;26.00;64.40;;;;;;4927702;28;20330;-92
2022/10/26 11:32:50;;;;;;;7.13;2.83;;;26.10;64.00;;;;;;4931929;28;20346;-91
2022/10/26 11:35:26;;;;;;;8.53;3.40;;;26.10;63.60;;;;;;4929902;28;20303;-91
2022/10/26 11:38:01;;;;;;;7.57;2.77;;;26.10;63.30;;;;;;4928795;28;20232;-88
2022/10/26 11:40:40;;;;;;;13.33;4.83;;;26.10;64.10;;;;;;4923813;29;20701;-91
2022/10/26 11:43:17;;;;;;;8.97;4.03;;;26.10;62.70;;;;;;4932151;28;20208;-91
2022/10/26 11:45:46;;;;;;;6.53;2.57;;;26.10;63.00;;;;;;4930751;28;20207;-90
2022/10/26 11:48:19;;;;;;;9.93;3.60;;;26.10;63.30;;;;;;4928565;28;20216;-89
2022/10/26 11:50:51;;;;;;;7.33;2.73;;;26.10;63.00;;;;;;4930041;28;20220;-92
2022/10/26 11:53:21;;;;;;;9.70;2.53;;;26.10;62.80;;;;;;4929736;29;20254;-90
2022/10/26 11:55:52;;;;;;;12.33;4.10;;;26.10;63.10;;;;;;4927929;29;20557;-91
2022/10/26 11:58:24;;;;;;;11.53;3.07;;;26.10;63.10;;;;;;4927736;29;20231;-93
2022/10/26 12:00:55;;;;;;;8.67;3.47;;;26.20;62.90;;;;;;4929475;29;20215;-91
2022/10/26 12:03:27;;;;;;;7.87;2.90;;;26.20;62.40;;;;;;4926915;28;20208;-93
2022/10/26 12:05:54;;;;;;;9.70;3.13;;;26.20;62.10;;;;;;4930302;28;20299;-90
2022/10/26 12:08:27;;;;;;;8.27;3.10;;;26.30;62.80;;;;;;4929777;28;20208;-90
2022/10/26 12:11:03;;;;;;;7.90;2.63;;;26.30;62.50;;;;;;4917084;28;20205;-92
2022/10/26 12:13:38;;;;;;;7.70;2.83;;;26.30;62.30;;;;;;4925727;29;20583;-90
2022/10/26 12:16:13;;;;;;;8.73;3.27;;;26.40;62.50;;;;;;4930731;28;20286;-90
2022/10/26 12:18:46;;;;;;;10.90;3.90;;;26.50;62.40;;;;;;4928574;28;20232;-93
2022/10/26 12:21:21;;;;;;;8.50;2.90;;;26.50;61.60;;;;;;4932866;28;20319;-89
2022/10/26 12:23:56;;;;;;;7.33;3.10;;;26.60;61.80;;;;;;4932192;28;20224;-93
2022/10/26 12:26:51;;;;;;;8.20;3.37;;;26.60;60.90;;;;;;4927212;28;20211;-92
2022/10/26 12:29:45;;;;;;;9.47;4.17;;;26.70;60.50;;;;;;4922298;28;20278;-90
2022/10/26 12:32:49;;;;;;;9.23;2.67;;;26.80;59.50;;;;;;4929793;29;20216;-90
2022/10/26 12:35:37;;;;;;;7.37;2.50;;;26.80;59.80;;;;;;4929090;29;20331;-90
2022/10/26 12:38:34;;;;;;;14.27;4.37;;;26.70;59.90;;;;;;4927450;28;20262;-90
2022/10/26 12:41:09;;;;;;;7.80;2.63;;;26.80;59.70;;;;;;4932829;28;20208;-90
2022/10/26 12:43:41;;;;;;;11.37;3.90;;;26.80;60.30;;;;;;4933772;28;20228;-93
2022/10/26 12:46:44;;;;;;;8.07;3.33;;;26.80;59.80;;;;;;4921101;28;20212;-95
2022/10/26 12:49:57;;;;;;;5.17;2.40;;;26.80;59.60;;;;;;4924039;28;20215;-88
2022/10/26 12:52:41;;;;;;;9.63;3.50;;;26.90;59.30;;;;;;4930362;29;20307;-95
2022/10/26 12:56:00;;;;;;;11.33;2.87;;;26.90;59.50;;;;;;4929369;28;20204;-96
2022/10/26 12:59:00;;;;;;;8.10;3.10;;;26.90;58.60;;;;;;4926707;29;20248;-92
2022/10/26 13:02:16;;;;;;;14.30;4.13;;;26.90;58.60;;;;;;4928114;28;20725;-94
2022/10/26 13:05:08;;;;;;;10.97;2.57;;;26.90;58.00;;;;;;4930273;28;20208;-92
2022/10/26 13:07:37;;;;;;;18.83;6.93;;;26.90;58.20;;;;;;4929971;28;20311;-94
2022/10/26 13:10:20;;;;;;;13.73;4.60;;;26.80;58.80;;;;;;4926577;28;20300;-90
2022/10/26 13:12:50;;;;;;;7.73;2.60;;;26.80;58.60;;;;;;4933964;28;20224;-89